sensor_id;sensor_type;location;lat;lon;timestamp;P1;durP1;ratioP1;P2;durP2;ratioP2
45762;SDS011;37512;52.408;13.356;2023-06-19T00:00:42;10.75;;;9.60;;
45762;SDS011;37512;52.408;13.356;2023-06-19T00:04:43;10.48;;;8.82;;
45762;SDS011;37512;52.408;13.356;2023-06-19T00:08:45;14.43;;;9.88;;
45762;SDS011;37512;52.408;13.356;2023-06-19T00:12:46;13.68;;;10.10;;
45762;SDS011;37512;52.408;13.356;2023-06-19T00:16:48;11.35;;;9.82;;
45762;SDS011;37512;52.408;13.356;2023-06-19T00:20:51;11.68;;;10.25;;
45762;SDS011;37512;52.408;13.356;2023-06-19T00:24:54;13.32;;;10.40;;
45762;SDS011;37512;52.408;13.356;2023-06-19T00:28:56;11.27;;;10.07;;
45762;SDS011;37512;52.408;13.356;2023-06-19T00:32:57;13.73;;;10.15;;
45762;SDS011;37512;52.408;13.356;2023-06-19T00:37:04;11.73;;;10.55;;
45762;SDS011;37512;52.408;13.356;2023-06-19T00:41:06;13.50;;;10.43;;
45762;SDS011;37512;52.408;13.356;2023-06-19T00:45:07;11.70;;;10.48;;
45762;SDS011;37512;52.408;13.356;2023-06-19T00:49:09;11.10;;;9.90;;
45762;SDS011;37512;52.408;13.356;2023-06-19T00:53:11;11.88;;;10.23;;
45762;SDS011;37512;52.408;13.356;2023-06-19T00:57:14;11.43;;;10.15;;
45762;SDS011;37512;52.408;13.356;2023-06-19T01:01:15;11.75;;;9.60;;
45762;SDS011;37512;52.408;13.356;2023-06-19T01:05:17;11.20;;;10.00;;
45762;SDS011;37512;52.408;13.356;2023-06-19T01:09:19;12.43;;;9.93;;
45762;SDS011;37512;52.408;13.356;2023-06-19T01:13:31;11.18;;;9.98;;
45762;SDS011;37512;52.408;13.356;2023-06-19T01:17:38;11.32;;;10.13;;
45762;SDS011;37512;52.408;13.356;2023-06-19T01:21:40;10.48;;;9.35;;
45762;SDS011;37512;52.408;13.356;2023-06-19T01:25:42;10.40;;;9.30;;
45762;SDS011;37512;52.408;13.356;2023-06-19T01:29:44;11.15;;;9.77;;
45762;SDS011;37512;52.408;13.356;2023-06-19T01:33:45;11.90;;;10.73;;
45762;SDS011;37512;52.408;13.356;2023-06-19T01:37:49;12.48;;;10.02;;
45762;SDS011;37512;52.408;13.356;2023-06-19T01:41:53;11.45;;;10.25;;
45762;SDS011;37512;52.408;13.356;2023-06-19T01:45:56;12.02;;;10.63;;
45762;SDS011;37512;52.408;13.356;2023-06-19T01:49:58;12.25;;;10.57;;
45762;SDS011;37512;52.408;13.356;2023-06-19T01:53:59;12.10;;;10.90;;
45762;SDS011;37512;52.408;13.356;2023-06-19T01:58:01;11.63;;;10.43;;
45762;SDS011;37512;52.408;13.356;2023-06-19T02:02:02;12.18;;;10.98;;
45762;SDS011;37512;52.408;13.356;2023-06-19T02:06:05;11.95;;;10.65;;
45762;SDS011;37512;52.408;13.356;2023-06-19T02:10:06;11.75;;;10.50;;
45762;SDS011;37512;52.408;13.356;2023-06-19T02:14:09;12.90;;;11.68;;
45762;SDS011;37512;52.408;13.356;2023-06-19T02:18:12;14.45;;;11.25;;
45762;SDS011;37512;52.408;13.356;2023-06-19T02:22:14;13.10;;;11.80;;
45762;SDS011;37512;52.408;13.356;2023-06-19T02:26:15;13.15;;;11.85;;
45762;SDS011;37512;52.408;13.356;2023-06-19T02:30:16;12.93;;;11.55;;
45762;SDS011;37512;52.408;13.356;2023-06-19T02:34:18;13.45;;;12.05;;
45762;SDS011;37512;52.408;13.356;2023-06-19T02:38:20;13.05;;;11.75;;
45762;SDS011;37512;52.408;13.356;2023-06-19T02:42:22;14.80;;;11.68;;
45762;SDS011;37512;52.408;13.356;2023-06-19T02:46:24;12.73;;;11.43;;
45762;SDS011;37512;52.408;13.356;2023-06-19T02:50:25;15.00;;;13.35;;
45762;SDS011;37512;52.408;13.356;2023-06-19T02:54:27;13.70;;;12.30;;
45762;SDS011;37512;52.408;13.356;2023-06-19T02:58:29;13.20;;;11.82;;
45762;SDS011;37512;52.408;13.356;2023-06-19T03:02:30;13.60;;;11.65;;
45762;SDS011;37512;52.408;13.356;2023-06-19T03:06:32;15.35;;;13.27;;
45762;SDS011;37512;52.408;13.356;2023-06-19T03:10:40;13.80;;;12.30;;
45762;SDS011;37512;52.408;13.356;2023-06-19T03:14:41;13.82;;;12.43;;
45762;SDS011;37512;52.408;13.356;2023-06-19T03:18:43;14.57;;;13.18;;
45762;SDS011;37512;52.408;13.356;2023-06-19T03:22:46;13.40;;;11.73;;
45762;SDS011;37512;52.408;13.356;2023-06-19T03:26:48;14.75;;;12.00;;
45762;SDS011;37512;52.408;13.356;2023-06-19T03:30:49;14.50;;;12.93;;
45762;SDS011;37512;52.408;13.356;2023-06-19T03:34:51;14.77;;;12.32;;
45762;SDS011;37512;52.408;13.356;2023-06-19T03:38:53;13.95;;;12.50;;
45762;SDS011;37512;52.408;13.356;2023-06-19T03:42:56;14.32;;;12.85;;
45762;SDS011;37512;52.408;13.356;2023-06-19T03:46:58;14.88;;;13.20;;
45762;SDS011;37512;52.408;13.356;2023-06-19T03:50:59;12.95;;;11.65;;
45762;SDS011;37512;52.408;13.356;2023-06-19T03:55:02;13.75;;;12.35;;
45762;SDS011;37512;52.408;13.356;2023-06-19T03:59:04;14.63;;;12.45;;
45762;SDS011;37512;52.408;13.356;2023-06-19T04:03:05;14.05;;;12.60;;
45762;SDS011;37512;52.408;13.356;2023-06-19T04:07:07;15.68;;;12.63;;
45762;SDS011;37512;52.408;13.356;2023-06-19T04:11:08;13.38;;;11.95;;
45762;SDS011;37512;52.408;13.356;2023-06-19T04:15:11;15.38;;;12.52;;
45762;SDS011;37512;52.408;13.356;2023-06-19T04:19:12;16.42;;;12.80;;
45762;SDS011;37512;52.408;13.356;2023-06-19T04:23:16;15.40;;;13.15;;
45762;SDS011;37512;52.408;13.356;2023-06-19T04:27:18;13.43;;;12.10;;
45762;SDS011;37512;52.408;13.356;2023-06-19T04:31:20;15.23;;;12.63;;
45762;SDS011;37512;52.408;13.356;2023-06-19T04:35:22;14.65;;;13.15;;
45762;SDS011;37512;52.408;13.356;2023-06-19T04:39:25;14.27;;;12.82;;
45762;SDS011;37512;52.408;13.356;2023-06-19T04:43:29;12.98;;;11.60;;
45762;SDS011;37512;52.408;13.356;2023-06-19T04:47:38;13.80;;;12.40;;
45762;SDS011;37512;52.408;13.356;2023-06-19T04:51:57;14.18;;;12.48;;
45762;SDS011;37512;52.408;13.356;2023-06-19T04:55:59;14.57;;;12.32;;
45762;SDS011;37512;52.408;13.356;2023-06-19T05:00:03;14.27;;;12.65;;
45762;SDS011;37512;52.408;13.356;2023-06-19T05:04:11;13.93;;;12.45;;
45762;SDS011;37512;52.408;13.356;2023-06-19T05:08:13;13.25;;;11.85;;
45762;SDS011;37512;52.408;13.356;2023-06-19T05:12:14;14.07;;;12.57;;
45762;SDS011;37512;52.408;13.356;2023-06-19T05:16:16;15.15;;;13.65;;
45762;SDS011;37512;52.408;13.356;2023-06-19T05:20:21;14.13;;;12.63;;
45762;SDS011;37512;52.408;13.356;2023-06-19T05:24:23;16.20;;;12.77;;
45762;SDS011;37512;52.408;13.356;2023-06-19T05:28:25;13.45;;;12.15;;
45762;SDS011;37512;52.408;13.356;2023-06-19T05:32:26;14.05;;;12.55;;
45762;SDS011;37512;52.408;13.356;2023-06-19T05:36:28;15.00;;;11.85;;
45762;SDS011;37512;52.408;13.356;2023-06-19T05:40:30;14.27;;;12.80;;
45762;SDS011;37512;52.408;13.356;2023-06-19T05:44:32;14.07;;;12.68;;
45762;SDS011;37512;52.408;13.356;2023-06-19T05:48:33;16.75;;;12.80;;
45762;SDS011;37512;52.408;13.356;2023-06-19T05:52:35;15.50;;;13.10;;
45762;SDS011;37512;52.408;13.356;2023-06-19T05:56:36;16.25;;;13.20;;
45762;SDS011;37512;52.408;13.356;2023-06-19T06:00:38;14.73;;;13.15;;
45762;SDS011;37512;52.408;13.356;2023-06-19T06:04:39;15.00;;;12.68;;
45762;SDS011;37512;52.408;13.356;2023-06-19T06:08:41;14.02;;;12.52;;
45762;SDS011;37512;52.408;13.356;2023-06-19T06:12:43;13.38;;;11.98;;
45762;SDS011;37512;52.408;13.356;2023-06-19T06:16:44;13.52;;;12.13;;
45762;SDS011;37512;52.408;13.356;2023-06-19T06:20:46;14.20;;;12.70;;
45762;SDS011;37512;52.408;13.356;2023-06-19T06:24:47;14.07;;;12.50;;
45762;SDS011;37512;52.408;13.356;2023-06-19T06:28:49;14.20;;;12.40;;
45762;SDS011;37512;52.408;13.356;2023-06-19T06:32:50;12.80;;;11.50;;
45762;SDS011;37512;52.408;13.356;2023-06-19T06:36:52;13.50;;;11.60;;
45762;SDS011;37512;52.408;13.356;2023-06-19T06:41:06;14.82;;;12.88;;
45762;SDS011;37512;52.408;13.356;2023-06-19T06:45:09;13.45;;;12.10;;
45762;SDS011;37512;52.408;13.356;2023-06-19T06:49:11;13.60;;;12.18;;
45762;SDS011;37512;52.408;13.356;2023-06-19T06:53:12;16.02;;;12.55;;
45762;SDS011;37512;52.408;13.356;2023-06-19T06:57:14;13.52;;;12.05;;
45762;SDS011;37512;52.408;13.356;2023-06-19T07:01:18;13.07;;;11.27;;
45762;SDS011;37512;52.408;13.356;2023-06-19T07:05:20;15.35;;;12.60;;
45762;SDS011;37512;52.408;13.356;2023-06-19T07:09:21;15.13;;;11.80;;
45762;SDS011;37512;52.408;13.356;2023-06-19T07:13:24;11.88;;;10.73;;
45762;SDS011;37512;52.408;13.356;2023-06-19T07:17:26;13.77;;;12.45;;
45762;SDS011;37512;52.408;13.356;2023-06-19T07:21:27;15.40;;;12.90;;
45762;SDS011;37512;52.408;13.356;2023-06-19T07:25:31;12.63;;;11.15;;
45762;SDS011;37512;52.408;13.356;2023-06-19T07:29:34;13.85;;;11.30;;
45762;SDS011;37512;52.408;13.356;2023-06-19T07:33:36;18.23;;;10.80;;
45762;SDS011;37512;52.408;13.356;2023-06-19T07:37:38;12.55;;;10.95;;
45762;SDS011;37512;52.408;13.356;2023-06-19T07:41:39;11.45;;;10.35;;
45762;SDS011;37512;52.408;13.356;2023-06-19T07:45:41;11.25;;;10.05;;
45762;SDS011;37512;52.408;13.356;2023-06-19T07:49:44;11.52;;;10.32;;
45762;SDS011;37512;52.408;13.356;2023-06-19T07:53:47;10.40;;;9.35;;
45762;SDS011;37512;52.408;13.356;2023-06-19T07:57:48;10.60;;;9.50;;
45762;SDS011;37512;52.408;13.356;2023-06-19T08:01:50;11.95;;;9.65;;
45762;SDS011;37512;52.408;13.356;2023-06-19T08:05:51;11.52;;;9.77;;
45762;SDS011;37512;52.408;13.356;2023-06-19T08:09:53;10.20;;;9.18;;
45762;SDS011;37512;52.408;13.356;2023-06-19T08:14:13;10.27;;;8.77;;
45762;SDS011;37512;52.408;13.356;2023-06-19T08:18:14;11.18;;;9.57;;
45762;SDS011;37512;52.408;13.356;2023-06-19T08:22:16;11.80;;;10.50;;
45762;SDS011;37512;52.408;13.356;2023-06-19T08:26:18;17.42;;;14.88;;
45762;SDS011;37512;52.408;13.356;2023-06-19T08:30:19;13.85;;;11.43;;
45762;SDS011;37512;52.408;13.356;2023-06-19T08:34:21;14.82;;;12.43;;
45762;SDS011;37512;52.408;13.356;2023-06-19T08:38:23;12.20;;;10.13;;
45762;SDS011;37512;52.408;13.356;2023-06-19T08:42:24;10.60;;;9.50;;
45762;SDS011;37512;52.408;13.356;2023-06-19T08:46:26;13.40;;;11.30;;
45762;SDS011;37512;52.408;13.356;2023-06-19T08:50:31;11.32;;;10.00;;
45762;SDS011;37512;52.408;13.356;2023-06-19T08:54:33;11.80;;;10.52;;
45762;SDS011;37512;52.408;13.356;2023-06-19T08:58:35;11.98;;;10.13;;
45762;SDS011;37512;52.408;13.356;2023-06-19T09:02:40;12.05;;;10.30;;
45762;SDS011;37512;52.408;13.356;2023-06-19T09:06:56;11.75;;;10.55;;
45762;SDS011;37512;52.408;13.356;2023-06-19T09:11:02;12.60;;;10.27;;
45762;SDS011;37512;52.408;13.356;2023-06-19T09:15:11;12.23;;;10.90;;
45762;SDS011;37512;52.408;13.356;2023-06-19T09:19:19;14.40;;;11.35;;
45762;SDS011;37512;52.408;13.356;2023-06-19T09:23:22;12.73;;;10.82;;
45762;SDS011;37512;52.408;13.356;2023-06-19T09:27:24;12.45;;;11.15;;
45762;SDS011;37512;52.408;13.356;2023-06-19T09:31:32;13.25;;;11.85;;
45762;SDS011;37512;52.408;13.356;2023-06-19T09:35:35;11.52;;;10.32;;
45762;SDS011;37512;52.408;13.356;2023-06-19T09:39:37;13.38;;;11.82;;
45762;SDS011;37512;52.408;13.356;2023-06-19T09:43:41;12.85;;;11.52;;
45762;SDS011;37512;52.408;13.356;2023-06-19T09:47:45;13.00;;;11.68;;
45762;SDS011;37512;52.408;13.356;2023-06-19T09:51:50;13.52;;;12.13;;
45762;SDS011;37512;52.408;13.356;2023-06-19T09:55:52;14.55;;;13.00;;
45762;SDS011;37512;52.408;13.356;2023-06-19T09:59:54;14.32;;;12.82;;
45762;SDS011;37512;52.408;13.356;2023-06-19T10:04:03;13.82;;;12.32;;
45762;SDS011;37512;52.408;13.356;2023-06-19T10:08:07;16.42;;;12.95;;
45762;SDS011;37512;52.408;13.356;2023-06-19T10:12:12;17.00;;;13.00;;
45762;SDS011;37512;52.408;13.356;2023-06-19T10:16:20;14.45;;;12.18;;
45762;SDS011;37512;52.408;13.356;2023-06-19T10:20:24;15.23;;;12.05;;
45762;SDS011;37512;52.408;13.356;2023-06-19T10:24:50;13.45;;;11.75;;
45762;SDS011;37512;52.408;13.356;2023-06-19T10:28:52;13.68;;;11.93;;
45762;SDS011;37512;52.408;13.356;2023-06-19T10:32:53;13.75;;;12.35;;
45762;SDS011;37512;52.408;13.356;2023-06-19T10:36:55;12.25;;;11.05;;
45762;SDS011;37512;52.408;13.356;2023-06-19T10:40:56;12.85;;;11.65;;
45762;SDS011;37512;52.408;13.356;2023-06-19T10:45:06;17.17;;;12.32;;
45762;SDS011;37512;52.408;13.356;2023-06-19T10:49:10;12.88;;;11.40;;
45762;SDS011;37512;52.408;13.356;2023-06-19T10:53:22;11.63;;;10.43;;
45762;SDS011;37512;52.408;13.356;2023-06-19T10:57:30;12.63;;;10.98;;
45762;SDS011;37512;52.408;13.356;2023-06-19T11:01:36;11.05;;;9.95;;
45762;SDS011;37512;52.408;13.356;2023-06-19T11:05:39;12.30;;;10.70;;
45762;SDS011;37512;52.408;13.356;2023-06-19T11:09:44;13.00;;;10.73;;
45762;SDS011;37512;52.408;13.356;2023-06-19T11:13:46;12.23;;;11.02;;
45762;SDS011;37512;52.408;13.356;2023-06-19T11:17:48;11.55;;;10.35;;
45762;SDS011;37512;52.408;13.356;2023-06-19T11:21:51;10.90;;;9.82;;
45762;SDS011;37512;52.408;13.356;2023-06-19T11:25:53;11.40;;;10.27;;
45762;SDS011;37512;52.408;13.356;2023-06-19T11:29:58;11.60;;;9.85;;
45762;SDS011;37512;52.408;13.356;2023-06-19T11:34:00;10.57;;;9.55;;
45762;SDS011;37512;52.408;13.356;2023-06-19T11:38:03;12.75;;;9.68;;
45762;SDS011;37512;52.408;13.356;2023-06-19T11:42:05;16.15;;;8.98;;
45762;SDS011;37512;52.408;13.356;2023-06-19T11:46:07;12.05;;;9.25;;
45762;SDS011;37512;52.408;13.356;2023-06-19T11:50:09;10.43;;;9.38;;
45762;SDS011;37512;52.408;13.356;2023-06-19T11:54:11;12.30;;;9.70;;
45762;SDS011;37512;52.408;13.356;2023-06-19T11:58:15;14.32;;;10.82;;
45762;SDS011;37512;52.408;13.356;2023-06-19T12:02:17;9.18;;;8.13;;
45762;SDS011;37512;52.408;13.356;2023-06-19T12:06:19;9.65;;;8.65;;
45762;SDS011;37512;52.408;13.356;2023-06-19T12:10:21;10.43;;;8.90;;
45762;SDS011;37512;52.408;13.356;2023-06-19T12:14:24;8.77;;;7.93;;
45762;SDS011;37512;52.408;13.356;2023-06-19T12:18:25;12.32;;;9.48;;
45762;SDS011;37512;52.408;13.356;2023-06-19T12:22:27;14.48;;;10.60;;
45762;SDS011;37512;52.408;13.356;2023-06-19T12:26:29;12.38;;;8.98;;
45762;SDS011;37512;52.408;13.356;2023-06-19T12:30:31;11.43;;;8.82;;
45762;SDS011;37512;52.408;13.356;2023-06-19T12:34:33;9.85;;;8.82;;
45762;SDS011;37512;52.408;13.356;2023-06-19T12:38:34;9.85;;;8.95;;
45762;SDS011;37512;52.408;13.356;2023-06-19T12:42:38;10.02;;;9.02;;
45762;SDS011;37512;52.408;13.356;2023-06-19T12:46:40;9.05;;;8.25;;
45762;SDS011;37512;52.408;13.356;2023-06-19T12:50:42;9.90;;;8.98;;
45762;SDS011;37512;52.408;13.356;2023-06-19T12:54:44;11.02;;;9.93;;
45762;SDS011;37512;52.408;13.356;2023-06-19T12:58:45;10.95;;;9.02;;
45762;SDS011;37512;52.408;13.356;2023-06-19T13:02:47;10.30;;;9.05;;
45762;SDS011;37512;52.408;13.356;2023-06-19T13:06:49;10.70;;;9.60;;
45762;SDS011;37512;52.408;13.356;2023-06-19T13:10:50;10.82;;;9.82;;
45762;SDS011;37512;52.408;13.356;2023-06-19T13:14:52;10.20;;;9.25;;
45762;SDS011;37512;52.408;13.356;2023-06-19T13:18:54;10.73;;;9.68;;
45762;SDS011;37512;52.408;13.356;2023-06-19T13:22:55;10.98;;;9.82;;
45762;SDS011;37512;52.408;13.356;2023-06-19T13:26:57;10.77;;;9.25;;
45762;SDS011;37512;52.408;13.356;2023-06-19T13:30:59;10.52;;;9.52;;
45762;SDS011;37512;52.408;13.356;2023-06-19T13:35:01;10.55;;;9.48;;
45762;SDS011;37512;52.408;13.356;2023-06-19T13:39:02;11.20;;;9.85;;
45762;SDS011;37512;52.408;13.356;2023-06-19T13:43:05;10.02;;;9.05;;
45762;SDS011;37512;52.408;13.356;2023-06-19T13:47:09;10.15;;;8.52;;
45762;SDS011;37512;52.408;13.356;2023-06-19T13:51:11;10.27;;;9.20;;
45762;SDS011;37512;52.408;13.356;2023-06-19T13:55:13;10.43;;;9.38;;
45762;SDS011;37512;52.408;13.356;2023-06-19T13:59:18;13.40;;;9.68;;
45762;SDS011;37512;52.408;13.356;2023-06-19T14:03:20;9.73;;;8.73;;
45762;SDS011;37512;52.408;13.356;2023-06-19T14:07:21;9.45;;;8.52;;
45762;SDS011;37512;52.408;13.356;2023-06-19T14:11:24;9.82;;;8.82;;
45762;SDS011;37512;52.408;13.356;2023-06-19T14:15:25;10.15;;;8.98;;
45762;SDS011;37512;52.408;13.356;2023-06-19T14:19:27;9.65;;;8.73;;
45762;SDS011;37512;52.408;13.356;2023-06-19T14:23:30;10.40;;;9.32;;
45762;SDS011;37512;52.408;13.356;2023-06-19T14:27:32;9.30;;;8.40;;
45762;SDS011;37512;52.408;13.356;2023-06-19T14:31:34;10.45;;;8.80;;
45762;SDS011;37512;52.408;13.356;2023-06-19T14:35:36;9.35;;;8.45;;
45762;SDS011;37512;52.408;13.356;2023-06-19T14:39:38;17.08;;;7.90;;
45762;SDS011;37512;52.408;13.356;2023-06-19T14:43:40;9.27;;;8.38;;
45762;SDS011;37512;52.408;13.356;2023-06-19T14:47:42;10.18;;;8.20;;
45762;SDS011;37512;52.408;13.356;2023-06-19T14:51:43;9.43;;;7.78;;
45762;SDS011;37512;52.408;13.356;2023-06-19T14:55:46;10.10;;;7.72;;
45762;SDS011;37512;52.408;13.356;2023-06-19T14:59:48;7.38;;;6.53;;
45762;SDS011;37512;52.408;13.356;2023-06-19T15:03:49;10.50;;;7.85;;
45762;SDS011;37512;52.408;13.356;2023-06-19T15:07:51;8.07;;;7.28;;
45762;SDS011;37512;52.408;13.356;2023-06-19T15:11:53;8.32;;;7.35;;
45762;SDS011;37512;52.408;13.356;2023-06-19T15:15:54;9.35;;;7.45;;
45762;SDS011;37512;52.408;13.356;2023-06-19T15:19:56;8.88;;;7.63;;
45762;SDS011;37512;52.408;13.356;2023-06-19T15:23:57;8.95;;;8.00;;
45762;SDS011;37512;52.408;13.356;2023-06-19T15:27:59;8.30;;;7.47;;
45762;SDS011;37512;52.408;13.356;2023-06-19T15:32:01;8.43;;;7.60;;
45762;SDS011;37512;52.408;13.356;2023-06-19T15:36:03;9.05;;;7.60;;
45762;SDS011;37512;52.408;13.356;2023-06-19T15:40:05;8.30;;;6.85;;
45762;SDS011;37512;52.408;13.356;2023-06-19T15:44:07;9.00;;;6.65;;
45762;SDS011;37512;52.408;13.356;2023-06-19T15:48:09;8.63;;;7.72;;
45762;SDS011;37512;52.408;13.356;2023-06-19T15:52:10;8.95;;;7.70;;
45762;SDS011;37512;52.408;13.356;2023-06-19T15:56:12;8.13;;;7.28;;
45762;SDS011;37512;52.408;13.356;2023-06-19T16:00:14;7.70;;;6.90;;
45762;SDS011;37512;52.408;13.356;2023-06-19T16:04:16;7.53;;;6.82;;
45762;SDS011;37512;52.408;13.356;2023-06-19T16:08:18;8.27;;;7.47;;
45762;SDS011;37512;52.408;13.356;2023-06-19T16:12:20;7.53;;;6.82;;
45762;SDS011;37512;52.408;13.356;2023-06-19T16:16:21;8.30;;;6.90;;
45762;SDS011;37512;52.408;13.356;2023-06-19T16:20:23;8.77;;;6.85;;
45762;SDS011;37512;52.408;13.356;2023-06-19T16:24:25;8.98;;;7.13;;
45762;SDS011;37512;52.408;13.356;2023-06-19T16:28:26;8.68;;;7.40;;
45762;SDS011;37512;52.408;13.356;2023-06-19T16:32:30;8.02;;;7.18;;
45762;SDS011;37512;52.408;13.356;2023-06-19T16:36:32;7.15;;;6.45;;
45762;SDS011;37512;52.408;13.356;2023-06-19T16:40:34;11.05;;;7.78;;
45762;SDS011;37512;52.408;13.356;2023-06-19T16:44:35;9.20;;;8.15;;
45762;SDS011;37512;52.408;13.356;2023-06-19T16:48:37;8.10;;;7.30;;
45762;SDS011;37512;52.408;13.356;2023-06-19T16:52:38;9.10;;;7.10;;
45762;SDS011;37512;52.408;13.356;2023-06-19T16:56:40;30.27;;;26.30;;
45762;SDS011;37512;52.408;13.356;2023-06-19T17:00:41;8.45;;;7.55;;
45762;SDS011;37512;52.408;13.356;2023-06-19T17:04:43;8.10;;;6.65;;
45762;SDS011;37512;52.408;13.356;2023-06-19T17:08:44;9.95;;;7.90;;
45762;SDS011;37512;52.408;13.356;2023-06-19T17:12:46;8.50;;;7.40;;
45762;SDS011;37512;52.408;13.356;2023-06-19T17:16:47;8.18;;;7.00;;
45762;SDS011;37512;52.408;13.356;2023-06-19T17:20:49;8.05;;;7.25;;
45762;SDS011;37512;52.408;13.356;2023-06-19T17:24:51;7.47;;;6.68;;
45762;SDS011;37512;52.408;13.356;2023-06-19T17:28:52;15.00;;;10.90;;
45762;SDS011;37512;52.408;13.356;2023-06-19T17:32:54;8.95;;;7.40;;
45762;SDS011;37512;52.408;13.356;2023-06-19T17:36:56;8.82;;;6.95;;
45762;SDS011;37512;52.408;13.356;2023-06-19T17:40:57;9.40;;;7.50;;
45762;SDS011;37512;52.408;13.356;2023-06-19T17:44:59;9.13;;;7.65;;
45762;SDS011;37512;52.408;13.356;2023-06-19T17:49:01;9.18;;;7.55;;
45762;SDS011;37512;52.408;13.356;2023-06-19T17:53:03;9.68;;;8.68;;
45762;SDS011;37512;52.408;13.356;2023-06-19T17:57:06;10.18;;;7.78;;
45762;SDS011;37512;52.408;13.356;2023-06-19T18:01:07;13.50;;;9.85;;
45762;SDS011;37512;52.408;13.356;2023-06-19T18:05:09;10.00;;;9.00;;
45762;SDS011;37512;52.408;13.356;2023-06-19T18:09:12;14.02;;;9.05;;
45762;SDS011;37512;52.408;13.356;2023-06-19T18:13:14;9.40;;;8.38;;
45762;SDS011;37512;52.408;13.356;2023-06-19T18:17:15;10.05;;;8.43;;
45762;SDS011;37512;52.408;13.356;2023-06-19T18:21:17;10.30;;;8.98;;
45762;SDS011;37512;52.408;13.356;2023-06-19T18:25:18;10.23;;;9.15;;
45762;SDS011;37512;52.408;13.356;2023-06-19T18:29:23;10.25;;;9.25;;
45762;SDS011;37512;52.408;13.356;2023-06-19T18:33:24;11.25;;;9.93;;
45762;SDS011;37512;52.408;13.356;2023-06-19T18:37:26;11.60;;;9.48;;
45762;SDS011;37512;52.408;13.356;2023-06-19T18:41:29;10.75;;;9.55;;
45762;SDS011;37512;52.408;13.356;2023-06-19T18:45:31;12.00;;;9.88;;
45762;SDS011;37512;52.408;13.356;2023-06-19T18:49:33;11.05;;;9.93;;
45762;SDS011;37512;52.408;13.356;2023-06-19T18:53:40;11.32;;;9.38;;
45762;SDS011;37512;52.408;13.356;2023-06-19T18:57:42;11.98;;;10.25;;
45762;SDS011;37512;52.408;13.356;2023-06-19T19:01:45;10.90;;;9.80;;
45762;SDS011;37512;52.408;13.356;2023-06-19T19:05:46;13.05;;;11.07;;
45762;SDS011;37512;52.408;13.356;2023-06-19T19:09:51;11.48;;;10.27;;
45762;SDS011;37512;52.408;13.356;2023-06-19T19:13:53;14.25;;;11.20;;
45762;SDS011;37512;52.408;13.356;2023-06-19T19:17:57;11.02;;;9.88;;
45762;SDS011;37512;52.408;13.356;2023-06-19T19:21:59;12.88;;;11.00;;
45762;SDS011;37512;52.408;13.356;2023-06-19T19:26:00;12.55;;;9.90;;
45762;SDS011;37512;52.408;13.356;2023-06-19T19:30:02;14.18;;;11.32;;
45762;SDS011;37512;52.408;13.356;2023-06-19T19:34:05;12.15;;;10.88;;
45762;SDS011;37512;52.408;13.356;2023-06-19T19:38:06;12.63;;;11.27;;
45762;SDS011;37512;52.408;13.356;2023-06-19T19:42:08;12.70;;;11.38;;
45762;SDS011;37512;52.408;13.356;2023-06-19T19:46:09;15.98;;;12.98;;
45762;SDS011;37512;52.408;13.356;2023-06-19T19:50:11;14.18;;;12.35;;
45762;SDS011;37512;52.408;13.356;2023-06-19T19:54:13;12.68;;;11.38;;
45762;SDS011;37512;52.408;13.356;2023-06-19T19:58:14;11.95;;;10.75;;
45762;SDS011;37512;52.408;13.356;2023-06-19T20:02:20;13.02;;;11.63;;
45762;SDS011;37512;52.408;13.356;2023-06-19T20:06:22;14.50;;;11.75;;
45762;SDS011;37512;52.408;13.356;2023-06-19T20:10:31;14.68;;;13.13;;
45762;SDS011;37512;52.408;13.356;2023-06-19T20:14:32;15.52;;;12.73;;
45762;SDS011;37512;52.408;13.356;2023-06-19T20:18:34;14.82;;;12.50;;
45762;SDS011;37512;52.408;13.356;2023-06-19T20:22:44;15.23;;;12.73;;
45762;SDS011;37512;52.408;13.356;2023-06-19T20:26:46;15.95;;;12.73;;
45762;SDS011;37512;52.408;13.356;2023-06-19T20:30:51;16.33;;;14.60;;
45762;SDS011;37512;52.408;13.356;2023-06-19T20:34:53;15.77;;;14.02;;
45762;SDS011;37512;52.408;13.356;2023-06-19T20:38:57;14.52;;;13.02;;
45762;SDS011;37512;52.408;13.356;2023-06-19T20:42:59;14.85;;;13.35;;
45762;SDS011;37512;52.408;13.356;2023-06-19T20:47:01;18.35;;;15.82;;
45762;SDS011;37512;52.408;13.356;2023-06-19T20:51:03;14.25;;;12.73;;
45762;SDS011;37512;52.408;13.356;2023-06-19T20:55:05;14.73;;;13.23;;
45762;SDS011;37512;52.408;13.356;2023-06-19T20:59:07;14.35;;;12.85;;
45762;SDS011;37512;52.408;13.356;2023-06-19T21:03:09;14.38;;;12.88;;
45762;SDS011;37512;52.408;13.356;2023-06-19T21:07:12;14.30;;;12.77;;
45762;SDS011;37512;52.408;13.356;2023-06-19T21:11:17;14.85;;;13.02;;
45762;SDS011;37512;52.408;13.356;2023-06-19T21:15:19;16.55;;;13.57;;
45762;SDS011;37512;52.408;13.356;2023-06-19T21:19:20;13.63;;;12.32;;
45762;SDS011;37512;52.408;13.356;2023-06-19T21:23:22;16.95;;;13.20;;
45762;SDS011;37512;52.408;13.356;2023-06-19T21:27:24;14.63;;;13.13;;
45762;SDS011;37512;52.408;13.356;2023-06-19T21:31:25;15.35;;;13.60;;
45762;SDS011;37512;52.408;13.356;2023-06-19T21:35:27;17.15;;;13.45;;
45762;SDS011;37512;52.408;13.356;2023-06-19T21:39:29;14.75;;;12.68;;
45762;SDS011;37512;52.408;13.356;2023-06-19T21:43:30;15.25;;;12.73;;
45762;SDS011;37512;52.408;13.356;2023-06-19T21:47:32;15.68;;;13.63;;
45762;SDS011;37512;52.408;13.356;2023-06-19T21:51:36;15.57;;;13.63;;
45762;SDS011;37512;52.408;13.356;2023-06-19T21:55:38;16.13;;;13.13;;
45762;SDS011;37512;52.408;13.356;2023-06-19T21:59:39;14.93;;;13.38;;
45762;SDS011;37512;52.408;13.356;2023-06-19T22:03:41;15.73;;;14.13;;
45762;SDS011;37512;52.408;13.356;2023-06-19T22:07:43;16.75;;;12.80;;
45762;SDS011;37512;52.408;13.356;2023-06-19T22:11:44;17.38;;;14.68;;
45762;SDS011;37512;52.408;13.356;2023-06-19T22:15:45;14.98;;;13.13;;
45762;SDS011;37512;52.408;13.356;2023-06-19T22:19:47;16.23;;;12.88;;
45762;SDS011;37512;52.408;13.356;2023-06-19T22:23:49;19.08;;;14.60;;
45762;SDS011;37512;52.408;13.356;2023-06-19T22:27:50;15.88;;;14.27;;
45762;SDS011;37512;52.408;13.356;2023-06-19T22:31:55;16.65;;;13.98;;
45762;SDS011;37512;52.408;13.356;2023-06-19T22:35:57;15.45;;;13.85;;
45762;SDS011;37512;52.408;13.356;2023-06-19T22:39:58;16.30;;;13.82;;
45762;SDS011;37512;52.408;13.356;2023-06-19T22:44:00;17.08;;;15.27;;
45762;SDS011;37512;52.408;13.356;2023-06-19T22:48:03;15.63;;;13.75;;
45762;SDS011;37512;52.408;13.356;2023-06-19T22:52:05;16.95;;;15.15;;
45762;SDS011;37512;52.408;13.356;2023-06-19T22:56:07;15.68;;;14.10;;
45762;SDS011;37512;52.408;13.356;2023-06-19T23:00:08;17.52;;;15.68;;
45762;SDS011;37512;52.408;13.356;2023-06-19T23:04:13;15.93;;;14.23;;
45762;SDS011;37512;52.408;13.356;2023-06-19T23:08:15;17.40;;;15.35;;
45762;SDS011;37512;52.408;13.356;2023-06-19T23:12:16;17.40;;;15.50;;
45762;SDS011;37512;52.408;13.356;2023-06-19T23:16:18;16.75;;;14.90;;
45762;SDS011;37512;52.408;13.356;2023-06-19T23:20:20;17.95;;;16.05;;
45762;SDS011;37512;52.408;13.356;2023-06-19T23:24:21;18.75;;;16.27;;
45762;SDS011;37512;52.408;13.356;2023-06-19T23:28:23;18.10;;;15.88;;